White Apple, Mississippi
Current Conditions -  °F | °C
As of 12:15 AM on Friday 19 Dec 2014 (Local Time) from KHEZ Reporting Station
Overcast Overcast  
Wind Chill: 46°   Ceiling: 300
Heat Index: 48°   Visibility: 3mi
Dew Point: 46°   Wind: 6mph
Humidity: 93%   Direction: 20°NNE
Pressure: 30.16"   Gusts: NA
Location:  31.4774°N, 91.0619°W
Report Text: KHEZ 190615Z AUTO 02005KT 3SM BKN003 OVC012 09/08 A3016 RMK AO1
Loading
Personal Weather Stations






























Interactive Weather Map New forecast layout! Learn more

10-Day Weather Forecast

Advertisements
Track Severe Weather on mobile